sensor_id;sensor_type;location;lat;lon;timestamp;P1;durP1;ratioP1;P2;durP2;ratioP2
23410;SDS011;11878;51.774;7.220;2023-09-18T00:01:58;10.27;;;7.43;;
23410;SDS011;11878;51.774;7.220;2023-09-18T00:05:00;9.80;;;6.90;;
23410;SDS011;11878;51.774;7.220;2023-09-18T00:08:02;13.68;;;7.35;;
23410;SDS011;11878;51.774;7.220;2023-09-18T00:11:04;15.73;;;7.57;;
23410;SDS011;11878;51.774;7.220;2023-09-18T00:14:09;12.77;;;7.67;;
23410;SDS011;11878;51.774;7.220;2023-09-18T00:17:12;11.10;;;7.90;;
23410;SDS011;11878;51.774;7.220;2023-09-18T00:20:14;16.77;;;8.32;;
23410;SDS011;11878;51.774;7.220;2023-09-18T00:23:18;11.53;;;7.57;;
23410;SDS011;11878;51.774;7.220;2023-09-18T00:26:20;12.40;;;8.23;;
23410;SDS011;11878;51.774;7.220;2023-09-18T00:29:26;12.03;;;7.57;;
23410;SDS011;11878;51.774;7.220;2023-09-18T00:32:29;12.03;;;8.20;;
23410;SDS011;11878;51.774;7.220;2023-09-18T00:35:31;10.40;;;6.63;;
23410;SDS011;11878;51.774;7.220;2023-09-18T00:38:33;12.93;;;7.23;;
23410;SDS011;11878;51.774;7.220;2023-09-18T00:41:35;10.23;;;6.93;;
23410;SDS011;11878;51.774;7.220;2023-09-18T00:44:38;11.70;;;6.97;;
23410;SDS011;11878;51.774;7.220;2023-09-18T00:47:39;8.67;;;6.40;;
23410;SDS011;11878;51.774;7.220;2023-09-18T00:50:43;11.30;;;6.47;;
23410;SDS011;11878;51.774;7.220;2023-09-18T00:53:46;9.50;;;6.63;;
23410;SDS011;11878;51.774;7.220;2023-09-18T00:56:50;12.93;;;6.55;;
23410;SDS011;11878;51.774;7.220;2023-09-18T00:59:55;12.48;;;6.55;;
23410;SDS011;11878;51.774;7.220;2023-09-18T01:02:58;12.87;;;6.80;;
23410;SDS011;11878;51.774;7.220;2023-09-18T01:06:02;11.00;;;6.30;;
23410;SDS011;11878;51.774;7.220;2023-09-18T01:09:05;7.70;;;5.63;;
23410;SDS011;11878;51.774;7.220;2023-09-18T01:12:23;12.23;;;6.53;;
23410;SDS011;11878;51.774;7.220;2023-09-18T01:15:35;11.43;;;6.97;;
23410;SDS011;11878;51.774;7.220;2023-09-18T01:18:50;15.68;;;6.85;;
23410;SDS011;11878;51.774;7.220;2023-09-18T01:21:52;10.13;;;6.33;;
23410;SDS011;11878;51.774;7.220;2023-09-18T01:24:54;11.60;;;5.75;;
23410;SDS011;11878;51.774;7.220;2023-09-18T01:27:56;10.70;;;6.43;;
23410;SDS011;11878;51.774;7.220;2023-09-18T01:30:58;15.15;;;7.25;;
23410;SDS011;11878;51.774;7.220;2023-09-18T01:34:00;10.20;;;6.03;;
23410;SDS011;11878;51.774;7.220;2023-09-18T01:37:03;9.07;;;6.20;;
23410;SDS011;11878;51.774;7.220;2023-09-18T01:40:06;9.17;;;5.67;;
23410;SDS011;11878;51.774;7.220;2023-09-18T01:43:09;9.97;;;5.87;;
23410;SDS011;11878;51.774;7.220;2023-09-18T01:46:11;15.37;;;6.50;;
23410;SDS011;11878;51.774;7.220;2023-09-18T01:49:14;10.47;;;6.10;;
23410;SDS011;11878;51.774;7.220;2023-09-18T01:52:16;10.90;;;6.25;;
23410;SDS011;11878;51.774;7.220;2023-09-18T01:55:18;10.77;;;6.30;;
23410;SDS011;11878;51.774;7.220;2023-09-18T01:58:20;9.93;;;6.10;;
23410;SDS011;11878;51.774;7.220;2023-09-18T02:01:22;9.02;;;6.50;;
23410;SDS011;11878;51.774;7.220;2023-09-18T02:04:24;13.40;;;6.93;;
23410;SDS011;11878;51.774;7.220;2023-09-18T02:07:47;10.05;;;6.50;;
23410;SDS011;11878;51.774;7.220;2023-09-18T02:10:49;9.67;;;6.20;;
23410;SDS011;11878;51.774;7.220;2023-09-18T02:13:51;10.53;;;5.77;;
23410;SDS011;11878;51.774;7.220;2023-09-18T02:16:53;8.37;;;6.10;;
23410;SDS011;11878;51.774;7.220;2023-09-18T02:19:55;8.93;;;6.23;;
23410;SDS011;11878;51.774;7.220;2023-09-18T02:22:57;11.82;;;6.28;;
23410;SDS011;11878;51.774;7.220;2023-09-18T02:25:59;7.90;;;5.90;;
23410;SDS011;11878;51.774;7.220;2023-09-18T02:29:03;12.60;;;6.57;;
23410;SDS011;11878;51.774;7.220;2023-09-18T02:32:06;8.90;;;6.10;;
23410;SDS011;11878;51.774;7.220;2023-09-18T02:35:08;8.67;;;6.07;;
23410;SDS011;11878;51.774;7.220;2023-09-18T02:38:11;14.20;;;6.17;;
23410;SDS011;11878;51.774;7.220;2023-09-18T02:41:13;8.53;;;6.57;;
23410;SDS011;11878;51.774;7.220;2023-09-18T02:44:14;12.87;;;6.43;;
23410;SDS011;11878;51.774;7.220;2023-09-18T02:47:17;8.67;;;5.63;;
23410;SDS011;11878;51.774;7.220;2023-09-18T02:50:19;11.27;;;6.00;;
23410;SDS011;11878;51.774;7.220;2023-09-18T02:53:21;9.70;;;6.13;;
23410;SDS011;11878;51.774;7.220;2023-09-18T02:56:24;16.23;;;6.93;;
23410;SDS011;11878;51.774;7.220;2023-09-18T02:59:26;9.60;;;5.93;;
23410;SDS011;11878;51.774;7.220;2023-09-18T03:02:28;11.00;;;6.33;;
23410;SDS011;11878;51.774;7.220;2023-09-18T03:05:31;10.50;;;5.60;;
23410;SDS011;11878;51.774;7.220;2023-09-18T03:08:33;10.50;;;5.22;;
23410;SDS011;11878;51.774;7.220;2023-09-18T03:11:37;11.33;;;6.17;;
23410;SDS011;11878;51.774;7.220;2023-09-18T03:14:39;13.47;;;6.00;;
23410;SDS011;11878;51.774;7.220;2023-09-18T03:17:41;9.53;;;5.40;;
23410;SDS011;11878;51.774;7.220;2023-09-18T03:20:43;10.63;;;5.70;;
23410;SDS011;11878;51.774;7.220;2023-09-18T03:23:46;9.18;;;5.82;;
23410;SDS011;11878;51.774;7.220;2023-09-18T03:26:47;8.50;;;5.53;;
23410;SDS011;11878;51.774;7.220;2023-09-18T03:29:50;7.18;;;4.90;;
23410;SDS011;11878;51.774;7.220;2023-09-18T03:32:52;9.30;;;5.97;;
23410;SDS011;11878;51.774;7.220;2023-09-18T03:35:57;9.70;;;5.67;;
23410;SDS011;11878;51.774;7.220;2023-09-18T03:39:03;9.93;;;6.03;;
23410;SDS011;11878;51.774;7.220;2023-09-18T03:42:06;21.37;;;6.00;;
23410;SDS011;11878;51.774;7.220;2023-09-18T03:45:09;9.52;;;6.15;;
23410;SDS011;11878;51.774;7.220;2023-09-18T03:48:12;9.00;;;6.07;;
23410;SDS011;11878;51.774;7.220;2023-09-18T03:51:15;9.13;;;6.17;;
23410;SDS011;11878;51.774;7.220;2023-09-18T03:54:17;9.03;;;5.90;;
23410;SDS011;11878;51.774;7.220;2023-09-18T03:57:19;10.30;;;6.10;;
23410;SDS011;11878;51.774;7.220;2023-09-18T04:00:21;11.50;;;5.67;;
23410;SDS011;11878;51.774;7.220;2023-09-18T04:03:24;10.67;;;5.83;;
23410;SDS011;11878;51.774;7.220;2023-09-18T04:06:35;9.23;;;6.10;;
23410;SDS011;11878;51.774;7.220;2023-09-18T04:09:38;9.80;;;5.23;;
23410;SDS011;11878;51.774;7.220;2023-09-18T04:12:41;8.00;;;5.70;;
23410;SDS011;11878;51.774;7.220;2023-09-18T04:15:43;15.77;;;7.87;;
23410;SDS011;11878;51.774;7.220;2023-09-18T04:18:47;8.67;;;5.23;;
23410;SDS011;11878;51.774;7.220;2023-09-18T04:21:49;9.83;;;5.77;;
23410;SDS011;11878;51.774;7.220;2023-09-18T04:24:51;11.83;;;5.60;;
23410;SDS011;11878;51.774;7.220;2023-09-18T04:27:53;12.40;;;5.67;;
23410;SDS011;11878;51.774;7.220;2023-09-18T04:30:55;9.80;;;5.33;;
23410;SDS011;11878;51.774;7.220;2023-09-18T04:33:58;8.57;;;5.10;;
23410;SDS011;11878;51.774;7.220;2023-09-18T04:37:00;7.40;;;5.17;;
23410;SDS011;11878;51.774;7.220;2023-09-18T04:40:07;10.30;;;5.93;;
23410;SDS011;11878;51.774;7.220;2023-09-18T04:43:15;7.73;;;5.20;;
23410;SDS011;11878;51.774;7.220;2023-09-18T04:46:17;7.87;;;5.27;;
23410;SDS011;11878;51.774;7.220;2023-09-18T04:49:20;10.30;;;5.43;;
23410;SDS011;11878;51.774;7.220;2023-09-18T04:52:22;12.57;;;5.23;;
23410;SDS011;11878;51.774;7.220;2023-09-18T04:55:24;8.03;;;4.70;;
23410;SDS011;11878;51.774;7.220;2023-09-18T04:58:26;11.27;;;5.50;;
23410;SDS011;11878;51.774;7.220;2023-09-18T05:01:28;10.03;;;5.27;;
23410;SDS011;11878;51.774;7.220;2023-09-18T05:04:31;12.87;;;5.00;;
23410;SDS011;11878;51.774;7.220;2023-09-18T05:07:33;12.70;;;5.60;;
23410;SDS011;11878;51.774;7.220;2023-09-18T05:10:36;11.73;;;4.97;;
23410;SDS011;11878;51.774;7.220;2023-09-18T05:13:38;9.37;;;4.53;;
23410;SDS011;11878;51.774;7.220;2023-09-18T05:16:40;7.80;;;4.97;;
23410;SDS011;11878;51.774;7.220;2023-09-18T05:19:43;12.17;;;5.10;;
23410;SDS011;11878;51.774;7.220;2023-09-18T05:22:45;6.53;;;4.37;;
23410;SDS011;11878;51.774;7.220;2023-09-18T05:25:47;14.23;;;4.53;;
23410;SDS011;11878;51.774;7.220;2023-09-18T05:28:49;9.90;;;4.60;;
23410;SDS011;11878;51.774;7.220;2023-09-18T05:31:52;11.43;;;5.20;;
23410;SDS011;11878;51.774;7.220;2023-09-18T05:34:54;8.37;;;5.13;;
23410;SDS011;11878;51.774;7.220;2023-09-18T05:37:56;7.73;;;3.70;;
23410;SDS011;11878;51.774;7.220;2023-09-18T05:41:00;9.23;;;3.30;;
23410;SDS011;11878;51.774;7.220;2023-09-18T05:44:02;9.87;;;3.13;;
23410;SDS011;11878;51.774;7.220;2023-09-18T05:47:06;6.37;;;2.77;;
23410;SDS011;11878;51.774;7.220;2023-09-18T05:50:10;7.73;;;3.27;;
23410;SDS011;11878;51.774;7.220;2023-09-18T05:53:17;9.07;;;3.00;;
23410;SDS011;11878;51.774;7.220;2023-09-18T05:56:19;7.90;;;2.77;;
23410;SDS011;11878;51.774;7.220;2023-09-18T05:59:21;8.80;;;3.60;;
23410;SDS011;11878;51.774;7.220;2023-09-18T06:02:23;11.27;;;3.30;;
23410;SDS011;11878;51.774;7.220;2023-09-18T06:05:25;8.50;;;3.30;;
23410;SDS011;11878;51.774;7.220;2023-09-18T06:08:28;10.27;;;3.93;;
23410;SDS011;11878;51.774;7.220;2023-09-18T06:11:31;8.10;;;3.07;;
23410;SDS011;11878;51.774;7.220;2023-09-18T06:14:33;7.40;;;2.70;;
23410;SDS011;11878;51.774;7.220;2023-09-18T06:17:37;8.00;;;2.63;;
23410;SDS011;11878;51.774;7.220;2023-09-18T06:20:41;9.80;;;2.87;;
23410;SDS011;11878;51.774;7.220;2023-09-18T06:23:45;10.67;;;2.80;;
23410;SDS011;11878;51.774;7.220;2023-09-18T06:26:47;5.93;;;2.93;;
23410;SDS011;11878;51.774;7.220;2023-09-18T06:29:49;10.20;;;3.37;;
23410;SDS011;11878;51.774;7.220;2023-09-18T06:32:51;8.48;;;2.65;;
23410;SDS011;11878;51.774;7.220;2023-09-18T06:35:54;8.18;;;2.63;;
23410;SDS011;11878;51.774;7.220;2023-09-18T06:38:57;7.70;;;3.00;;
23410;SDS011;11878;51.774;7.220;2023-09-18T06:41:59;11.47;;;3.20;;
23410;SDS011;11878;51.774;7.220;2023-09-18T06:45:01;9.20;;;2.80;;
23410;SDS011;11878;51.774;7.220;2023-09-18T06:48:08;9.70;;;3.08;;
23410;SDS011;11878;51.774;7.220;2023-09-18T06:51:10;11.10;;;3.20;;
23410;SDS011;11878;51.774;7.220;2023-09-18T06:54:12;8.85;;;3.03;;
23410;SDS011;11878;51.774;7.220;2023-09-18T06:57:14;6.03;;;3.15;;
23410;SDS011;11878;51.774;7.220;2023-09-18T07:00:16;6.82;;;2.40;;
23410;SDS011;11878;51.774;7.220;2023-09-18T07:03:19;8.17;;;2.40;;
23410;SDS011;11878;51.774;7.220;2023-09-18T07:06:23;5.77;;;2.30;;
23410;SDS011;11878;51.774;7.220;2023-09-18T07:09:25;6.20;;;2.50;;
23410;SDS011;11878;51.774;7.220;2023-09-18T07:12:27;9.25;;;2.33;;
23410;SDS011;11878;51.774;7.220;2023-09-18T07:15:29;9.20;;;2.58;;
23410;SDS011;11878;51.774;7.220;2023-09-18T07:18:31;10.70;;;2.55;;
23410;SDS011;11878;51.774;7.220;2023-09-18T07:21:33;6.22;;;2.78;;
23410;SDS011;11878;51.774;7.220;2023-09-18T07:24:36;4.53;;;2.20;;
23410;SDS011;11878;51.774;7.220;2023-09-18T07:27:42;10.43;;;1.98;;
23410;SDS011;11878;51.774;7.220;2023-09-18T07:30:48;8.00;;;2.25;;
23410;SDS011;11878;51.774;7.220;2023-09-18T07:33:50;5.70;;;2.28;;
23410;SDS011;11878;51.774;7.220;2023-09-18T07:36:54;6.97;;;2.38;;
23410;SDS011;11878;51.774;7.220;2023-09-18T07:39:57;8.18;;;2.00;;
23410;SDS011;11878;51.774;7.220;2023-09-18T07:42:59;4.18;;;1.80;;
23410;SDS011;11878;51.774;7.220;2023-09-18T07:46:01;11.50;;;1.90;;
23410;SDS011;11878;51.774;7.220;2023-09-18T07:49:03;6.35;;;1.60;;
23410;SDS011;11878;51.774;7.220;2023-09-18T07:52:05;12.25;;;2.00;;
23410;SDS011;11878;51.774;7.220;2023-09-18T07:55:07;6.03;;;1.85;;
23410;SDS011;11878;51.774;7.220;2023-09-18T07:58:09;8.07;;;1.50;;
23410;SDS011;11878;51.774;7.220;2023-09-18T08:01:12;6.88;;;1.40;;
23410;SDS011;11878;51.774;7.220;2023-09-18T08:04:15;4.85;;;1.48;;
23410;SDS011;11878;51.774;7.220;2023-09-18T08:07:17;7.35;;;1.35;;
23410;SDS011;11878;51.774;7.220;2023-09-18T08:10:20;6.28;;;1.25;;
23410;SDS011;11878;51.774;7.220;2023-09-18T08:13:22;4.50;;;1.70;;
23410;SDS011;11878;51.774;7.220;2023-09-18T08:16:25;7.57;;;1.52;;
23410;SDS011;11878;51.774;7.220;2023-09-18T08:19:27;5.35;;;2.63;;
23410;SDS011;11878;51.774;7.220;2023-09-18T08:22:29;4.00;;;1.35;;
23410;SDS011;11878;51.774;7.220;2023-09-18T08:25:32;5.40;;;1.50;;
23410;SDS011;11878;51.774;7.220;2023-09-18T08:28:34;6.13;;;1.73;;
23410;SDS011;11878;51.774;7.220;2023-09-18T08:31:38;4.60;;;1.27;;
23410;SDS011;11878;51.774;7.220;2023-09-18T08:34:40;8.20;;;2.45;;
23410;SDS011;11878;51.774;7.220;2023-09-18T08:37:42;4.18;;;1.00;;
23410;SDS011;11878;51.774;7.220;2023-09-18T08:40:44;7.22;;;1.67;;
23410;SDS011;11878;51.774;7.220;2023-09-18T08:43:46;6.43;;;1.90;;
23410;SDS011;11878;51.774;7.220;2023-09-18T08:46:51;6.25;;;1.40;;
23410;SDS011;11878;51.774;7.220;2023-09-18T08:49:53;6.45;;;1.45;;
23410;SDS011;11878;51.774;7.220;2023-09-18T08:52:56;3.72;;;1.80;;
23410;SDS011;11878;51.774;7.220;2023-09-18T08:55:59;3.90;;;1.77;;
23410;SDS011;11878;51.774;7.220;2023-09-18T08:59:05;11.38;;;2.15;;
23410;SDS011;11878;51.774;7.220;2023-09-18T09:02:07;2.10;;;1.23;;
23410;SDS011;11878;51.774;7.220;2023-09-18T09:05:12;1.42;;;0.95;;
23410;SDS011;11878;51.774;7.220;2023-09-18T09:08:15;3.58;;;1.50;;
23410;SDS011;11878;51.774;7.220;2023-09-18T09:11:17;2.83;;;1.55;;
23410;SDS011;11878;51.774;7.220;2023-09-18T09:14:21;5.13;;;1.50;;
23410;SDS011;11878;51.774;7.220;2023-09-18T09:17:31;2.85;;;1.20;;
23410;SDS011;11878;51.774;7.220;2023-09-18T09:20:34;3.17;;;1.20;;
23410;SDS011;11878;51.774;7.220;2023-09-18T09:23:48;5.63;;;1.70;;
23410;SDS011;11878;51.774;7.220;2023-09-18T09:26:58;3.08;;;1.40;;
23410;SDS011;11878;51.774;7.220;2023-09-18T09:30:01;6.43;;;1.30;;
23410;SDS011;11878;51.774;7.220;2023-09-18T09:33:06;7.30;;;1.27;;
23410;SDS011;11878;51.774;7.220;2023-09-18T09:36:09;3.03;;;1.42;;
23410;SDS011;11878;51.774;7.220;2023-09-18T09:39:11;3.90;;;1.23;;
23410;SDS011;11878;51.774;7.220;2023-09-18T09:42:16;3.53;;;1.20;;
23410;SDS011;11878;51.774;7.220;2023-09-18T09:45:28;5.20;;;1.23;;
23410;SDS011;11878;51.774;7.220;2023-09-18T09:48:32;3.03;;;1.35;;
23410;SDS011;11878;51.774;7.220;2023-09-18T09:51:34;3.22;;;1.27;;
23410;SDS011;11878;51.774;7.220;2023-09-18T09:54:36;4.82;;;1.33;;
23410;SDS011;11878;51.774;7.220;2023-09-18T09:57:48;4.22;;;1.13;;
23410;SDS011;11878;51.774;7.220;2023-09-18T10:00:52;4.20;;;1.02;;
23410;SDS011;11878;51.774;7.220;2023-09-18T10:03:56;2.78;;;1.35;;
23410;SDS011;11878;51.774;7.220;2023-09-18T10:07:05;4.78;;;1.30;;
23410;SDS011;11878;51.774;7.220;2023-09-18T10:10:09;2.58;;;1.15;;
23410;SDS011;11878;51.774;7.220;2023-09-18T10:13:12;3.55;;;1.20;;
23410;SDS011;11878;51.774;7.220;2023-09-18T10:16:17;4.28;;;1.13;;
23410;SDS011;11878;51.774;7.220;2023-09-18T10:22:49;2.20;;;1.13;;
23410;SDS011;11878;51.774;7.220;2023-09-18T10:25:55;6.53;;;1.23;;
23410;SDS011;11878;51.774;7.220;2023-09-18T10:29:01;4.57;;;1.20;;
23410;SDS011;11878;51.774;7.220;2023-09-18T10:32:07;2.85;;;1.20;;
23410;SDS011;11878;51.774;7.220;2023-09-18T10:35:09;5.80;;;1.23;;
23410;SDS011;11878;51.774;7.220;2023-09-18T10:38:14;2.53;;;1.10;;
23410;SDS011;11878;51.774;7.220;2023-09-18T10:41:18;8.98;;;1.00;;
23410;SDS011;11878;51.774;7.220;2023-09-18T10:44:22;2.85;;;0.90;;
23410;SDS011;11878;51.774;7.220;2023-09-18T10:47:25;2.33;;;0.60;;
23410;SDS011;11878;51.774;7.220;2023-09-18T10:50:28;1.77;;;0.75;;
23410;SDS011;11878;51.774;7.220;2023-09-18T10:53:31;2.75;;;1.08;;
23410;SDS011;11878;51.774;7.220;2023-09-18T10:56:33;2.08;;;0.90;;
23410;SDS011;11878;51.774;7.220;2023-09-18T10:59:43;2.60;;;0.85;;
23410;SDS011;11878;51.774;7.220;2023-09-18T11:02:46;2.97;;;0.90;;
23410;SDS011;11878;51.774;7.220;2023-09-18T11:05:48;1.80;;;0.73;;
23410;SDS011;11878;51.774;7.220;2023-09-18T11:09:05;4.03;;;0.90;;
23410;SDS011;11878;51.774;7.220;2023-09-18T11:12:09;1.65;;;0.88;;
23410;SDS011;11878;51.774;7.220;2023-09-18T11:15:25;2.33;;;0.98;;
23410;SDS011;11878;51.774;7.220;2023-09-18T11:18:32;3.10;;;1.02;;
23410;SDS011;11878;51.774;7.220;2023-09-18T11:21:35;2.28;;;1.00;;
23410;SDS011;11878;51.774;7.220;2023-09-18T11:24:37;2.53;;;0.90;;
23410;SDS011;11878;51.774;7.220;2023-09-18T11:27:54;4.65;;;1.38;;
23410;SDS011;11878;51.774;7.220;2023-09-18T11:30:59;3.42;;;1.10;;
23410;SDS011;11878;51.774;7.220;2023-09-18T11:34:10;5.93;;;1.20;;
23410;SDS011;11878;51.774;7.220;2023-09-18T11:37:20;2.00;;;0.90;;
23410;SDS011;11878;51.774;7.220;2023-09-18T11:40:30;1.90;;;1.00;;
23410;SDS011;11878;51.774;7.220;2023-09-18T11:43:35;3.75;;;1.20;;
23410;SDS011;11878;51.774;7.220;2023-09-18T11:46:44;1.45;;;1.10;;
23410;SDS011;11878;51.774;7.220;2023-09-18T11:49:55;3.55;;;0.98;;
23410;SDS011;11878;51.774;7.220;2023-09-18T11:53:00;3.33;;;1.25;;
23410;SDS011;11878;51.774;7.220;2023-09-18T11:56:02;2.83;;;0.70;;
23410;SDS011;11878;51.774;7.220;2023-09-18T11:59:05;2.90;;;0.90;;
23410;SDS011;11878;51.774;7.220;2023-09-18T12:02:08;6.22;;;1.00;;
23410;SDS011;11878;51.774;7.220;2023-09-18T12:05:22;3.65;;;0.90;;
23410;SDS011;11878;51.774;7.220;2023-09-18T12:08:28;2.58;;;0.85;;
23410;SDS011;11878;51.774;7.220;2023-09-18T12:11:35;3.83;;;1.13;;
23410;SDS011;11878;51.774;7.220;2023-09-18T12:14:39;4.20;;;0.95;;
23410;SDS011;11878;51.774;7.220;2023-09-18T12:17:43;2.90;;;1.33;;
23410;SDS011;11878;51.774;7.220;2023-09-18T12:20:47;6.05;;;1.45;;
23410;SDS011;11878;51.774;7.220;2023-09-18T12:23:50;7.47;;;1.17;;
23410;SDS011;11878;51.774;7.220;2023-09-18T12:26:52;2.25;;;1.20;;
23410;SDS011;11878;51.774;7.220;2023-09-18T12:29:56;5.32;;;1.42;;
23410;SDS011;11878;51.774;7.220;2023-09-18T12:33:01;2.30;;;0.90;;
23410;SDS011;11878;51.774;7.220;2023-09-18T12:36:05;3.17;;;1.50;;
23410;SDS011;11878;51.774;7.220;2023-09-18T12:39:08;5.40;;;1.83;;
23410;SDS011;11878;51.774;7.220;2023-09-18T12:42:11;4.50;;;1.10;;
23410;SDS011;11878;51.774;7.220;2023-09-18T12:45:13;7.80;;;1.40;;
23410;SDS011;11878;51.774;7.220;2023-09-18T12:48:15;3.60;;;1.08;;
23410;SDS011;11878;51.774;7.220;2023-09-18T12:51:17;3.47;;;1.25;;
23410;SDS011;11878;51.774;7.220;2023-09-18T12:54:42;3.40;;;1.40;;
23410;SDS011;11878;51.774;7.220;2023-09-18T12:57:51;4.00;;;1.50;;
23410;SDS011;11878;51.774;7.220;2023-09-18T13:00:54;5.32;;;1.38;;
23410;SDS011;11878;51.774;7.220;2023-09-18T13:03:56;4.40;;;1.15;;
23410;SDS011;11878;51.774;7.220;2023-09-18T13:10:15;5.63;;;1.83;;
23410;SDS011;11878;51.774;7.220;2023-09-18T13:13:18;5.28;;;1.25;;
23410;SDS011;11878;51.774;7.220;2023-09-18T13:16:21;3.85;;;1.40;;
23410;SDS011;11878;51.774;7.220;2023-09-18T13:19:24;2.60;;;1.10;;
23410;SDS011;11878;51.774;7.220;2023-09-18T13:22:26;3.42;;;1.20;;
23410;SDS011;11878;51.774;7.220;2023-09-18T13:25:40;3.55;;;1.42;;
23410;SDS011;11878;51.774;7.220;2023-09-18T13:28:47;2.83;;;1.13;;
23410;SDS011;11878;51.774;7.220;2023-09-18T13:31:49;2.00;;;1.00;;
23410;SDS011;11878;51.774;7.220;2023-09-18T13:34:52;2.55;;;1.10;;
23410;SDS011;11878;51.774;7.220;2023-09-18T13:37:54;1.75;;;0.88;;
23410;SDS011;11878;51.774;7.220;2023-09-18T13:40:56;3.92;;;0.95;;
23410;SDS011;11878;51.774;7.220;2023-09-18T13:43:58;3.03;;;1.30;;
23410;SDS011;11878;51.774;7.220;2023-09-18T13:47:00;2.25;;;1.10;;
23410;SDS011;11878;51.774;7.220;2023-09-18T13:50:03;3.08;;;1.20;;
23410;SDS011;11878;51.774;7.220;2023-09-18T13:53:06;2.97;;;1.13;;
23410;SDS011;11878;51.774;7.220;2023-09-18T13:56:08;6.15;;;1.10;;
23410;SDS011;11878;51.774;7.220;2023-09-18T13:59:10;2.28;;;1.00;;
23410;SDS011;11878;51.774;7.220;2023-09-18T14:02:12;8.35;;;1.60;;
23410;SDS011;11878;51.774;7.220;2023-09-18T14:05:16;10.70;;;1.42;;
23410;SDS011;11878;51.774;7.220;2023-09-18T14:08:19;3.53;;;1.10;;
23410;SDS011;11878;51.774;7.220;2023-09-18T14:11:21;4.80;;;1.10;;
23410;SDS011;11878;51.774;7.220;2023-09-18T14:14:23;6.72;;;1.23;;
23410;SDS011;11878;51.774;7.220;2023-09-18T14:17:26;6.95;;;1.25;;
23410;SDS011;11878;51.774;7.220;2023-09-18T14:20:28;2.88;;;1.17;;
23410;SDS011;11878;51.774;7.220;2023-09-18T14:23:31;3.03;;;1.00;;
23410;SDS011;11878;51.774;7.220;2023-09-18T14:26:35;3.80;;;1.10;;
23410;SDS011;11878;51.774;7.220;2023-09-18T14:29:42;1.83;;;1.02;;
23410;SDS011;11878;51.774;7.220;2023-09-18T14:32:44;2.45;;;0.98;;
23410;SDS011;11878;51.774;7.220;2023-09-18T14:35:46;2.25;;;1.23;;
23410;SDS011;11878;51.774;7.220;2023-09-18T14:38:48;3.85;;;0.90;;
23410;SDS011;11878;51.774;7.220;2023-09-18T14:41:50;1.63;;;0.90;;
23410;SDS011;11878;51.774;7.220;2023-09-18T14:44:52;2.63;;;0.80;;
23410;SDS011;11878;51.774;7.220;2023-09-18T14:47:54;4.28;;;0.90;;
23410;SDS011;11878;51.774;7.220;2023-09-18T14:50:56;2.13;;;0.80;;
23410;SDS011;11878;51.774;7.220;2023-09-18T14:53:58;4.88;;;1.20;;
23410;SDS011;11878;51.774;7.220;2023-09-18T14:57:01;7.55;;;0.90;;
23410;SDS011;11878;51.774;7.220;2023-09-18T15:00:03;4.43;;;1.10;;
23410;SDS011;11878;51.774;7.220;2023-09-18T15:03:07;6.25;;;0.93;;
23410;SDS011;11878;51.774;7.220;2023-09-18T15:06:10;2.85;;;0.80;;
23410;SDS011;11878;51.774;7.220;2023-09-18T15:09:12;4.03;;;0.93;;
23410;SDS011;11878;51.774;7.220;2023-09-18T15:12:14;2.20;;;0.77;;
23410;SDS011;11878;51.774;7.220;2023-09-18T15:15:16;3.50;;;0.90;;
23410;SDS011;11878;51.774;7.220;2023-09-18T15:18:19;1.92;;;0.82;;
23410;SDS011;11878;51.774;7.220;2023-09-18T15:21:21;2.45;;;0.90;;
23410;SDS011;11878;51.774;7.220;2023-09-18T15:24:23;3.47;;;1.00;;
23410;SDS011;11878;51.774;7.220;2023-09-18T15:27:25;3.03;;;0.73;;
23410;SDS011;11878;51.774;7.220;2023-09-18T15:30:27;6.05;;;0.63;;
23410;SDS011;11878;51.774;7.220;2023-09-18T15:33:29;3.33;;;1.00;;
23410;SDS011;11878;51.774;7.220;2023-09-18T15:36:31;2.75;;;0.90;;
23410;SDS011;11878;51.774;7.220;2023-09-18T15:39:33;3.10;;;0.95;;
23410;SDS011;11878;51.774;7.220;2023-09-18T15:42:37;3.10;;;1.05;;
23410;SDS011;11878;51.774;7.220;2023-09-18T15:45:39;2.97;;;0.77;;
23410;SDS011;11878;51.774;7.220;2023-09-18T15:48:41;5.32;;;0.73;;
23410;SDS011;11878;51.774;7.220;2023-09-18T15:51:43;3.13;;;1.17;;
23410;SDS011;11878;51.774;7.220;2023-09-18T15:54:45;1.55;;;0.73;;
23410;SDS011;11878;51.774;7.220;2023-09-18T15:57:47;1.92;;;0.85;;
23410;SDS011;11878;51.774;7.220;2023-09-18T16:00:50;2.60;;;1.00;;
23410;SDS011;11878;51.774;7.220;2023-09-18T16:03:51;1.48;;;0.70;;
23410;SDS011;11878;51.774;7.220;2023-09-18T16:06:53;4.18;;;0.90;;
23410;SDS011;11878;51.774;7.220;2023-09-18T16:09:55;4.10;;;1.42;;
23410;SDS011;11878;51.774;7.220;2023-09-18T16:12:58;2.35;;;0.85;;
23410;SDS011;11878;51.774;7.220;2023-09-18T16:16:01;5.13;;;0.70;;
23410;SDS011;11878;51.774;7.220;2023-09-18T16:19:04;2.67;;;0.88;;
23410;SDS011;11878;51.774;7.220;2023-09-18T16:22:07;3.45;;;0.80;;
23410;SDS011;11878;51.774;7.220;2023-09-18T16:25:13;3.60;;;0.77;;
23410;SDS011;11878;51.774;7.220;2023-09-18T16:28:15;1.70;;;0.90;;
23410;SDS011;11878;51.774;7.220;2023-09-18T16:31:18;2.88;;;0.77;;
23410;SDS011;11878;51.774;7.220;2023-09-18T16:34:20;2.28;;;0.60;;
23410;SDS011;11878;51.774;7.220;2023-09-18T16:37:23;2.13;;;0.77;;
23410;SDS011;11878;51.774;7.220;2023-09-18T16:40:25;2.70;;;0.73;;
23410;SDS011;11878;51.774;7.220;2023-09-18T16:43:27;3.45;;;0.77;;
23410;SDS011;11878;51.774;7.220;2023-09-18T16:46:36;6.43;;;0.80;;
23410;SDS011;11878;51.774;7.220;2023-09-18T16:49:39;6.25;;;0.90;;
23410;SDS011;11878;51.774;7.220;2023-09-18T16:52:41;3.70;;;0.80;;
23410;SDS011;11878;51.774;7.220;2023-09-18T16:55:47;1.73;;;0.77;;
23410;SDS011;11878;51.774;7.220;2023-09-18T16:58:49;5.25;;;0.88;;
23410;SDS011;11878;51.774;7.220;2023-09-18T17:01:50;1.45;;;0.82;;
23410;SDS011;11878;51.774;7.220;2023-09-18T17:04:52;2.53;;;0.70;;
23410;SDS011;11878;51.774;7.220;2023-09-18T17:07:55;4.22;;;0.80;;
23410;SDS011;11878;51.774;7.220;2023-09-18T17:10:57;3.38;;;0.68;;
23410;SDS011;11878;51.774;7.220;2023-09-18T17:13:59;2.08;;;0.68;;
23410;SDS011;11878;51.774;7.220;2023-09-18T17:17:02;2.63;;;1.00;;
23410;SDS011;11878;51.774;7.220;2023-09-18T17:20:04;2.03;;;0.80;;
23410;SDS011;11878;51.774;7.220;2023-09-18T17:23:07;6.75;;;0.95;;
23410;SDS011;11878;51.774;7.220;2023-09-18T17:26:09;3.38;;;1.00;;
23410;SDS011;11878;51.774;7.220;2023-09-18T17:29:12;3.13;;;1.00;;
23410;SDS011;11878;51.774;7.220;2023-09-18T17:32:14;4.57;;;0.88;;
23410;SDS011;11878;51.774;7.220;2023-09-18T17:35:17;1.88;;;0.80;;
23410;SDS011;11878;51.774;7.220;2023-09-18T17:38:19;4.18;;;1.20;;
23410;SDS011;11878;51.774;7.220;2023-09-18T17:41:21;4.63;;;0.75;;
23410;SDS011;11878;51.774;7.220;2023-09-18T17:44:23;5.32;;;0.63;;
23410;SDS011;11878;51.774;7.220;2023-09-18T17:47:24;1.33;;;0.47;;
23410;SDS011;11878;51.774;7.220;2023-09-18T17:50:26;4.68;;;1.30;;
23410;SDS011;11878;51.774;7.220;2023-09-18T17:53:28;5.82;;;0.75;;
23410;SDS011;11878;51.774;7.220;2023-09-18T17:56:31;4.90;;;0.70;;
23410;SDS011;11878;51.774;7.220;2023-09-18T17:59:33;2.28;;;0.65;;
23410;SDS011;11878;51.774;7.220;2023-09-18T18:02:35;7.15;;;1.05;;
23410;SDS011;11878;51.774;7.220;2023-09-18T18:05:40;5.43;;;0.83;;
23410;SDS011;11878;51.774;7.220;2023-09-18T18:08:45;8.17;;;1.03;;
23410;SDS011;11878;51.774;7.220;2023-09-18T18:11:47;4.20;;;1.20;;
23410;SDS011;11878;51.774;7.220;2023-09-18T18:14:50;2.27;;;0.60;;
23410;SDS011;11878;51.774;7.220;2023-09-18T18:17:53;4.40;;;0.90;;
23410;SDS011;11878;51.774;7.220;2023-09-18T18:20:55;1.60;;;0.87;;
23410;SDS011;11878;51.774;7.220;2023-09-18T18:23:58;3.03;;;0.73;;
23410;SDS011;11878;51.774;7.220;2023-09-18T18:27:00;3.30;;;1.10;;
23410;SDS011;11878;51.774;7.220;2023-09-18T18:30:03;4.27;;;0.77;;